Time;durP1;ratioP1;P1;durP2;ratioP2;P2;SDS_P1;SDS_P2;PMS_P1;PMS_P2;Temp;Humidity;BMP_temperature;BMP_pressure;BME280_temperature;BME280_humidity;BME280_pressure;Samples;Min_cycle;Max_cycle;Signal;HPM_P1;HPM_P2
2021/06/05 00:01:50;;;;;;;;;;;;;;;23.21;35.82;100797.34;1744317;81;20138;-77
2021/06/05 00:04:18;;;;;;;;;;;;;;;23.19;35.93;100796.22;1744480;82;20430;-77
2021/06/05 00:06:44;;;;;;;;;;;;;;;23.16;36.24;100792.57;1744092;81;20423;-77
2021/06/05 00:09:10;;;;;;;;;;;;;;;23.15;36.20;100796.37;1744474;82;20204;-77
2021/06/05 00:11:38;;;;;;;;;;;;;;;23.13;36.38;100792.23;1744117;81;20142;-77
2021/06/05 00:14:06;;;;;;;;;;;;;;;23.10;36.46;100792.15;1744576;82;20179;-77
2021/06/05 00:16:37;;;;;;;;;;;;;;;23.09;36.54;100794.59;1744252;81;20414;-77
2021/06/05 00:19:04;;;;;;;;;;;;;;;23.07;36.58;100800.80;1744243;82;20109;-77
2021/06/05 00:21:30;;;;;;;;;;;;;;;23.04;36.29;100795.82;1744040;82;20164;-77
2021/06/05 00:23:56;;;;;;;;;;;;;;;23.04;36.14;100804.02;1744231;81;20129;-77
2021/06/05 00:26:23;;;;;;;;;;;;;;;23.01;36.21;100798.47;1744631;82;20166;-77
2021/06/05 00:28:49;;;;;;;;;;;;;;;23.01;36.13;100793.55;1744271;82;20414;-79
2021/06/05 00:31:17;;;;;;;;;;;;;;;22.99;36.44;100782.03;1744204;81;20169;-78
2021/06/05 00:33:44;;;;;;;;;;;;;;;23.35;35.57;100784.33;1744073;82;20177;-77
2021/06/05 00:36:12;;;;;;;;;;;;;;;23.39;35.77;100784.13;1744361;81;20137;-78
2021/06/05 00:38:38;;;;;;;;;;;;;;;23.38;35.77;100780.57;1744320;81;20156;-78
2021/06/05 00:41:06;;;;;;;;;;;;;;;23.38;35.74;100779.73;1744320;81;20125;-77
2021/06/05 00:43:41;;;;;;;;;;;;;;;23.38;35.94;100777.84;1744465;82;20145;-78
2021/06/05 00:46:07;;;;;;;;;;;;;;;23.37;36.12;100782.19;1744745;81;20415;-78
2021/06/05 00:48:35;;;;;;;;;;;;;;;23.35;36.15;100781.59;1744356;81;20415;-77
2021/06/05 00:51:01;;;;;;;;;;;;;;;23.32;36.38;100779.33;1744480;82;20218;-77
2021/06/05 00:53:29;;;;;;;;;;;;;;;23.28;36.31;100781.15;1732325;82;20137;-77
2021/06/05 00:55:58;;;;;;;;;;;;;;;23.28;36.31;100780.32;1744529;81;20089;-77
2021/06/05 00:58:25;;;;;;;;;;;;;;;23.27;36.30;100778.12;1744572;82;20121;-77
2021/06/05 01:00:54;;;;;;;;;;;;;;;23.26;36.08;100773.73;1744312;82;20161;-77
2021/06/05 01:03:22;;;;;;;;;;;;;;;23.26;35.91;100775.64;1744698;81;20422;-77
2021/06/05 01:05:51;;;;;;;;;;;;;;;23.26;35.85;100772.36;1744460;81;20142;-77
2021/06/05 01:08:41;;;;;;;;;;;;;;;23.26;35.84;100769.63;1744301;81;20154;-77
2021/06/05 01:11:23;;;;;;;;;;;;;;;23.26;35.83;100769.63;1744579;82;20410;-77
2021/06/05 01:14:03;;;;;;;;;;;;;;;23.26;35.92;100776.46;1744516;81;20485;-77
2021/06/05 01:16:29;;;;;;;;;;;;;;;23.25;35.96;100774.77;1744549;81;20126;-77
2021/06/05 01:19:07;;;;;;;;;;;;;;;23.24;36.02;100777.75;1744228;81;20152;-77
2021/06/05 01:21:43;;;;;;;;;;;;;;;23.23;36.01;100778.29;1744281;82;20142;-77
2021/06/05 01:24:19;;;;;;;;;;;;;;;23.21;36.05;100775.47;1744447;81;20403;-77
2021/06/05 01:26:48;;;;;;;;;;;;;;;23.19;36.07;100775.72;1744593;81;20081;-77
2021/06/05 01:29:24;;;;;;;;;;;;;;;23.19;36.10;100784.45;1744378;81;20166;-77
2021/06/05 01:31:52;;;;;;;;;;;;;;;23.17;36.15;100779.23;1744144;81;20184;-77
2021/06/05 01:34:20;;;;;;;;;;;;;;;23.18;36.23;100786.89;1744219;81;20162;-77
2021/06/05 01:36:51;;;;;;;;;;;;;;;23.17;36.26;100777.04;1744636;82;20137;-77
2021/06/05 01:39:27;;;;;;;;;;;;;;;23.15;36.31;100774.52;1731634;82;20141;-77
2021/06/05 01:41:54;;;;;;;;;;;;;;;23.15;36.31;100780.52;1744407;82;20122;-77
2021/06/05 01:44:23;;;;;;;;;;;;;;;23.13;36.42;100778.03;1744419;82;20134;-77
2021/06/05 01:46:50;;;;;;;;;;;;;;;23.12;36.56;100782.34;1744705;81;20133;-76
2021/06/05 01:49:19;;;;;;;;;;;;;;;23.11;36.78;100780.69;1744325;81;20146;-76
2021/06/05 01:51:50;;;;;;;;;;;;;;;23.10;36.96;100781.22;1744430;81;20110;-76
2021/06/05 01:54:20;;;;;;;;;;;;;;;23.10;37.00;100777.12;1744527;81;20142;-77
2021/06/05 01:56:49;;;;;;;;;;;;;;;23.11;37.25;100777.95;1744376;81;20166;-77
2021/06/05 01:59:18;;;;;;;;;;;;;;;23.10;37.12;100777.12;1743904;81;20399;-77
2021/06/05 02:01:46;;;;;;;;;;;;;;;23.10;37.11;100779.85;1744012;81;20137;-77
2021/06/05 02:04:14;;;;;;;;;;;;;;;23.08;37.20;100779.27;1744448;81;20137;-77
2021/06/05 02:06:46;;;;;;;;;;;;;;;23.08;37.19;100785.27;1744234;81;20158;-77
2021/06/05 02:09:16;;;;;;;;;;;;;;;23.09;37.15;100777.36;1744182;81;20455;-77
2021/06/05 02:11:46;;;;;;;;;;;;;;;23.12;37.18;100782.34;1744368;82;20166;-77
2021/06/05 02:14:17;;;;;;;;;;;;;;;23.10;37.30;100781.22;1744199;81;20431;-77
2021/06/05 02:16:48;;;;;;;;;;;;;;;23.09;37.42;100775.46;1744618;81;20081;-78
2021/06/05 02:19:22;;;;;;;;;;;;;;;23.09;37.53;100776.83;1744566;82;20154;-77
2021/06/05 02:21:50;;;;;;;;;;;;;;;23.09;37.63;100785.02;1741952;82;20509;-77
2021/06/05 02:24:23;;;;;;;;;;;;;;;23.09;37.66;100782.30;1744659;82;20156;-77
2021/06/05 02:26:49;;;;;;;;;;;;;;;23.09;37.70;100774.09;1742476;79;20163;-76
2021/06/05 02:29:20;;;;;;;;;;;;;;;23.08;37.76;100779.80;1740649;82;20479;-77
2021/06/05 02:31:46;;;;;;;;;;;;;;;23.08;37.91;100775.70;1750720;79;20149;-76
2021/06/05 02:34:15;;;;;;;;;;;;;;;23.09;38.01;100776.83;1772060;81;20153;-77
2021/06/05 02:36:44;;;;;;;;;;;;;;;23.10;37.97;100776.29;1771224;81;20176;-76
2021/06/05 02:39:12;;;;;;;;;;;;;;;23.11;37.91;100780.69;1771733;81;20199;-77
2021/06/05 02:41:43;;;;;;;;;;;;;;;23.11;37.96;100777.95;1748589;81;20137;-76
2021/06/05 02:44:10;;;;;;;;;;;;;;;23.12;37.99;100775.01;1771038;81;20136;-76
2021/06/05 02:46:37;;;;;;;;;;;;;;;22.75;38.65;100775.58;1771289;81;20157;-76
2021/06/05 02:49:09;;;;;;;;;;;;;;;22.69;38.88;100770.52;1771792;81;20157;-77
2021/06/05 02:51:41;;;;;;;;;;;;;;;22.67;39.02;100771.30;1768600;81;20193;-76
2021/06/05 02:54:09;;;;;;;;;;;;;;;22.66;39.08;100768.23;1770943;81;20205;-78
2021/06/05 02:56:36;;;;;;;;;;;;;;;22.89;38.72;100769.41;1770855;81;20153;-76
2021/06/05 02:59:03;;;;;;;;;;;;;;;23.10;38.22;100764.00;1771450;81;20133;-77
2021/06/05 03:01:31;;;;;;;;;;;;;;;23.12;38.13;100761.34;1790642;79;20175;-78
2021/06/05 03:04:01;;;;;;;;;;;;;;;23.12;38.37;100765.44;1802794;78;20165;-77
2021/06/05 03:06:31;;;;;;;;;;;;;;;23.13;38.27;100763.00;1802856;78;20174;-78
2021/06/05 03:08:58;;;;;;;;;;;;;;;22.99;38.68;100761.53;1802975;78;20502;-78
2021/06/05 03:11:26;;;;;;;;;;;;;;;23.12;38.57;100759.11;1802530;78;20166;-78
2021/06/05 03:13:54;;;;;;;;;;;;;;;22.88;38.79;100759.55;1802829;78;20171;-77
2021/06/05 03:16:22;;;;;;;;;;;;;;;22.71;38.87;100765.67;1803584;79;20139;-77
2021/06/05 03:18:50;;;;;;;;;;;;;;;22.68;38.97;100775.69;1808551;78;20145;-78
2021/06/05 03:21:18;;;;;;;;;;;;;;;22.68;38.91;100768.86;1804185;79;20143;-78
2021/06/05 03:23:45;;;;;;;;;;;;;;;22.68;39.09;100768.86;1805091;79;20127;-78
2021/06/05 03:26:14;;;;;;;;;;;;;;;22.70;39.11;100776.28;1804664;79;20139;-77
2021/06/05 03:28:42;;;;;;;;;;;;;;;22.73;39.16;100774.45;1805039;78;20095;-78
2021/06/05 03:31:10;;;;;;;;;;;;;;;22.72;39.27;100767.34;1804681;78;20126;-77
2021/06/05 03:33:37;;;;;;;;;;;;;;;22.76;39.42;100773.18;1804585;78;20158;-77
2021/06/05 03:36:05;;;;;;;;;;;;;;;22.74;39.48;100773.92;1804447;78;20139;-77
2021/06/05 03:38:33;;;;;;;;;;;;;;;22.77;39.54;100773.47;1804168;78;20155;-77
2021/06/05 03:40:59;;;;;;;;;;;;;;;22.78;39.69;100777.33;1804389;79;20142;-77
2021/06/05 03:43:26;;;;;;;;;;;;;;;22.77;39.81;100768.84;1804798;78;20162;-77
2021/06/05 03:45:53;;;;;;;;;;;;;;;22.79;39.92;100771.33;1804058;79;20159;-77
2021/06/05 03:48:21;;;;;;;;;;;;;;;22.84;39.94;100773.37;1804217;78;20166;-78
2021/06/05 03:50:51;;;;;;;;;;;;;;;23.14;39.48;100768.76;1781276;79;20405;-78
2021/06/05 03:53:17;;;;;;;;;;;;;;;23.33;39.38;100761.84;1804589;78;20135;-77
2021/06/05 03:55:44;;;;;;;;;;;;;;;23.41;39.17;100761.52;1804353;78;20463;-78
2021/06/05 03:58:11;;;;;;;;;;;;;;;23.41;39.17;100760.14;1778608;78;20313;-78
2021/06/05 04:00:42;;;;;;;;;;;;;;;23.51;38.90;100765.86;1763432;79;20172;-78
2021/06/05 04:03:08;;;;;;;;;;;;;;;23.55;38.87;100764.32;1740771;80;20242;-77
2021/06/05 04:05:35;;;;;;;;;;;;;;;23.60;38.74;100767.17;1733467;82;20179;-78
2021/06/05 04:08:02;;;;;;;;;;;;;;;23.42;38.87;100771.38;1733487;83;20195;-78
2021/06/05 04:10:28;;;;;;;;;;;;;;;23.51;38.76;100769.95;1766121;81;20121;-77
2021/06/05 04:12:54;;;;;;;;;;;;;;;23.64;38.72;100772.50;1774204;81;20171;-76
2021/06/05 04:15:24;;;;;;;;;;;;;;;23.67;38.84;100773.94;1772457;81;20165;-76
2021/06/05 04:18:06;;;;;;;;;;;;;;;23.68;38.98;100779.17;1772059;81;20157;-77
2021/06/05 04:20:32;;;;;;;;;;;;;;;23.69;39.12;100773.16;1771552;81;20177;-76
2021/06/05 04:22:59;;;;;;;;;;;;;;;23.70;39.32;100780.28;1770611;81;20176;-76
2021/06/05 04:25:24;;;;;;;;;;;;;;;23.72;39.52;100774.89;1730309;81;20143;-77
2021/06/05 04:27:51;;;;;;;;;;;;;;;23.76;39.74;100776.08;1762394;79;20145;-76
2021/06/05 04:30:18;;;;;;;;;;;;;;;23.79;39.86;100771.48;1754344;81;20229;-76
2021/06/05 04:32:44;;;;;;;;;;;;;;;23.85;39.89;100775.73;1739450;82;20170;-76
2021/06/05 04:35:11;;;;;;;;;;;;;;;23.74;40.07;100774.10;1739757;82;20471;-76
2021/06/05 04:37:37;;;;;;;;;;;;;;;23.52;40.54;100772.98;1741729;82;20144;-76
2021/06/05 04:40:05;;;;;;;;;;;;;;;23.54;40.36;100772.23;1741602;82;20144;-76
2021/06/05 04:42:31;;;;;;;;;;;;;;;23.60;40.24;100772.64;1741599;82;20187;-77
2021/06/05 04:44:57;;;;;;;;;;;;;;;23.66;39.97;100770.34;1741465;82;20485;-77
2021/06/05 04:47:23;;;;;;;;;;;;;;;23.74;39.76;100769.17;1741033;80;20173;-78
2021/06/05 04:49:50;;;;;;;;;;;;;;;23.82;39.57;100768.82;1750541;81;20487;-77
2021/06/05 04:52:17;;;;;;;;;;;;;;;23.91;39.24;100766.56;1754772;80;20533;-77
2021/06/05 04:54:43;;;;;;;;;;;;;;;23.99;38.98;100764.84;1770178;81;20275;-77
2021/06/05 04:57:09;;;;;;;;;;;;;;;24.09;38.81;100769.70;1769359;81;20317;-77
2021/06/05 04:59:35;;;;;;;;;;;;;;;24.18;38.73;100762.78;1769757;81;20189;-77
2021/06/05 05:02:01;;;;;;;;;;;;;;;24.26;38.61;100760.52;1771330;81;20215;-77
2021/06/05 05:04:27;;;;;;;;;;;;;;;24.37;38.35;100753.91;1752825;81;20178;-77
2021/06/05 05:06:53;;;;;;;;;;;;;;;24.46;38.20;100760.67;1741136;82;20201;-77
2021/06/05 05:09:19;;;;;;;;;;;;;;;24.55;37.94;100748.25;1740391;82;20520;-75
2021/06/05 05:11:45;;;;;;;;;;;;;;;24.63;37.80;100753.34;1740320;82;20170;-78
2021/06/05 05:14:13;;;;;;;;;;;;;;;24.71;37.52;100748.86;1745317;80;20292;-77
2021/06/05 05:16:42;;;;;;;;;;;;;;;24.77;37.31;100750.61;1740140;82;20203;-76
2021/06/05 05:19:09;;;;;;;;;;;;;;;24.83;37.13;100746.59;1739792;82;20195;-77
2021/06/05 05:21:37;;;;;;;;;;;;;;;24.87;36.69;100743.66;1740291;82;20166;-77
2021/06/05 05:24:06;;;;;;;;;;;;;;;24.91;36.58;100742.09;1740966;82;20155;-77
2021/06/05 05:26:33;;;;;;;;;;;;;;;24.94;36.62;100741.06;1755157;80;20154;-76
2021/06/05 05:28:59;;;;;;;;;;;;;;;25.00;36.38;100743.35;1768942;80;20187;-78
2021/06/05 05:31:26;;;;;;;;;;;;;;;25.04;36.16;100740.41;1766134;79;20159;-76
2021/06/05 05:33:52;;;;;;;;;;;;;;;25.10;36.02;100742.19;1770514;81;20180;-77
2021/06/05 05:36:22;;;;;;;;;;;;;;;25.15;35.98;100742.27;1770508;80;20180;-77
2021/06/05 05:38:49;;;;;;;;;;;;;;;25.20;36.10;100739.61;1770136;80;20180;-77
2021/06/05 05:41:16;;;;;;;;;;;;;;;25.27;35.59;100744.41;1770021;81;20168;-77
2021/06/05 05:43:44;;;;;;;;;;;;;;;25.36;35.84;100739.34;1768552;79;20168;-78
2021/06/05 05:46:11;;;;;;;;;;;;;;;25.44;35.72;100733.99;1770832;81;20592;-77
2021/06/05 05:48:38;;;;;;;;;;;;;;;25.52;35.28;100729.44;1747663;81;20176;-78
2021/06/05 05:51:06;;;;;;;;;;;;;;;25.62;35.28;100732.36;1746618;81;20982;-77
2021/06/05 05:53:32;;;;;;;;;;;;;;;25.71;34.77;100725.91;1768119;81;20177;-76
2021/06/05 05:55:58;;;;;;;;;;;;;;;25.79;34.66;100720.83;1769915;81;20524;-77
2021/06/05 05:58:25;;;;;;;;;;;;;;;25.86;34.44;100723.95;1742714;79;20162;-76
2021/06/05 06:00:51;;;;;;;;;;;;;;;25.91;34.58;100717.16;1740442;82;20194;-76
2021/06/05 06:03:19;;;;;;;;;;;;;;;25.98;34.51;100719.16;1740628;82;20163;-76
2021/06/05 06:05:46;;;;;;;;;;;;;;;26.05;34.40;100717.07;1740295;82;20187;-77
2021/06/05 06:08:13;;;;;;;;;;;;;;;26.10;34.12;100713.56;1740762;82;20186;-78
2021/06/05 06:10:39;;;;;;;;;;;;;;;26.13;33.74;100715.26;1740161;82;20175;-78
2021/06/05 06:13:07;;;;;;;;;;;;;;;26.17;33.94;100710.92;1740937;82;20194;-76
2021/06/05 06:15:32;;;;;;;;;;;;;;;26.22;33.99;100711.53;1741279;82;20194;-77
2021/06/05 06:18:00;;;;;;;;;;;;;;;26.29;33.66;100714.34;1741151;82;20187;-76
2021/06/05 06:20:33;;;;;;;;;;;;;;;26.35;33.42;100713.89;1743017;82;20191;-76
2021/06/05 06:23:00;;;;;;;;;;;;;;;26.43;33.45;100712.06;1740671;82;20199;-75
2021/06/05 06:25:30;;;;;;;;;;;;;;;26.52;33.26;100712.44;1762366;81;20184;-76
2021/06/05 06:27:56;;;;;;;;;;;;;;;26.60;33.00;100708.41;1750550;79;20174;-75
2021/06/05 06:30:28;;;;;;;;;;;;;;;26.68;33.08;100707.95;1735568;82;20217;-75
2021/06/05 06:32:54;;;;;;;;;;;;;;;26.74;32.97;100709.11;1734168;81;20178;-76
2021/06/05 06:35:21;;;;;;;;;;;;;;;26.82;33.00;100710.57;1735269;82;20511;-76
2021/06/05 06:37:48;;;;;;;;;;;;;;;26.91;32.91;100708.19;1747442;81;20203;-76
2021/06/05 06:40:14;;;;;;;;;;;;;;;27.00;32.62;100701.95;1749548;80;20190;-76
2021/06/05 06:42:41;;;;;;;;;;;;;;;27.08;32.30;100695.15;1769594;81;20081;-76
2021/06/05 06:45:10;;;;;;;;;;;;;;;27.17;32.04;100695.53;1735611;81;20171;-75
2021/06/05 06:47:37;;;;;;;;;;;;;;;27.26;31.93;100692.58;1739971;82;20444;-76
2021/06/05 06:50:06;;;;;;;;;;;;;;;27.38;31.88;100694.58;1740105;82;20190;-77
2021/06/05 06:52:32;;;;;;;;;;;;;;;27.49;31.86;100693.57;1773421;80;20173;-77
2021/06/05 06:55:00;;;;;;;;;;;;;;;27.60;31.85;100687.58;1777176;80;20160;-76
2021/06/05 06:57:26;;;;;;;;;;;;;;;27.70;31.96;100690.38;1777005;80;20143;-77
2021/06/05 06:59:52;;;;;;;;;;;;;;;27.80;31.62;100687.74;1775604;80;20200;-77
2021/06/05 07:02:18;;;;;;;;;;;;;;;27.90;31.24;100690.27;1774192;80;20229;-76
2021/06/05 07:04:44;;;;;;;;;;;;;;;27.96;31.23;100690.01;1769612;81;20165;-76
2021/06/05 07:07:12;;;;;;;;;;;;;;;28.05;31.35;100695.84;1769854;81;20145;-76
2021/06/05 07:09:39;;;;;;;;;;;;;;;28.08;31.04;100689.80;1742912;81;20432;-78
2021/06/05 07:12:05;;;;;;;;;;;;;;;28.11;31.16;100695.30;1747585;81;20138;-76
2021/06/05 07:14:32;;;;;;;;;;;;;;;28.11;30.80;100689.23;1740377;82;20174;-77
2021/06/05 07:17:00;;;;;;;;;;;;;;;28.09;30.89;100684.56;1739205;82;20455;-77
2021/06/05 07:19:27;;;;;;;;;;;;;;;28.09;30.74;100685.94;1739737;82;20419;-77
2021/06/05 07:21:54;;;;;;;;;;;;;;;28.08;30.98;100687.05;1746571;81;20192;-77
2021/06/05 07:24:20;;;;;;;;;;;;;;;28.08;31.15;100687.05;1764767;80;20176;-78
2021/06/05 07:26:46;;;;;;;;;;;;;;;28.14;31.35;100690.64;1768414;81;20160;-76
2021/06/05 07:29:14;;;;;;;;;;;;;;;28.16;30.91;100674.14;1768787;81;20219;-76
2021/06/05 07:31:47;;;;;;;;;;;;;;;28.23;30.92;100682.14;1769249;81;20204;-77
2021/06/05 07:34:13;;;;;;;;;;;;;;;28.28;31.00;100676.64;1771088;81;20145;-78
2021/06/05 07:36:43;;;;;;;;;;;;;;;28.35;30.67;100681.95;1765198;81;20218;-77
2021/06/05 07:39:12;;;;;;;;;;;;;;;28.36;30.56;100676.16;1740768;82;20166;-77
2021/06/05 07:41:39;;;;;;;;;;;;;;;28.39;30.24;100677.52;1741498;82;20143;-77
2021/06/05 07:44:05;;;;;;;;;;;;;;;28.46;30.59;100668.46;1756798;81;20168;-76
2021/06/05 07:46:31;;;;;;;;;;;;;;;28.50;30.41;100670.95;1741375;81;20596;-77
2021/06/05 07:48:58;;;;;;;;;;;;;;;28.53;30.38;100668.48;1741884;81;20179;-77
2021/06/05 07:51:24;;;;;;;;;;;;;;;28.48;30.20;100665.72;1765258;81;20187;-77
2021/06/05 07:53:50;;;;;;;;;;;;;;;28.43;29.97;100662.93;1716532;81;20187;-77
2021/06/05 07:56:16;;;;;;;;;;;;;;;28.50;29.92;100659.38;1750526;81;20654;-76
2021/06/05 07:58:43;;;;;;;;;;;;;;;28.47;29.82;100661.84;1760575;79;20195;-77
2021/06/05 08:01:09;;;;;;;;;;;;;;;28.43;29.94;100664.86;1759418;81;20176;-77
2021/06/05 08:03:35;;;;;;;;;;;;;;;28.42;30.12;100664.59;1769057;81;20168;-77
2021/06/05 08:06:01;;;;;;;;;;;;;;;28.40;30.23;100652.48;1769167;81;20234;-77
2021/06/05 08:08:27;;;;;;;;;;;;;;;28.44;30.80;100652.77;1759599;79;20270;-77
2021/06/05 08:10:54;;;;;;;;;;;;;;;28.46;30.47;100651.93;1742116;81;20482;-77
2021/06/05 08:13:20;;;;;;;;;;;;;;;28.49;29.93;100656.91;1738001;82;20209;-77
2021/06/05 08:15:48;;;;;;;;;;;;;;;28.49;29.87;100652.22;1738948;82;20471;-76
2021/06/05 08:18:14;;;;;;;;;;;;;;;28.48;29.93;100649.72;1747643;81;20356;-77
2021/06/05 08:20:46;;;;;;;;;;;;;;;28.46;29.83;100650.00;1753129;81;20469;-76
2021/06/05 08:23:14;;;;;;;;;;;;;;;28.47;29.86;100646.69;1762880;81;20176;-76
2021/06/05 08:25:40;;;;;;;;;;;;;;;28.46;29.52;100647.80;1763396;80;20168;-76
2021/06/05 08:28:08;;;;;;;;;;;;;;;28.47;29.64;100644.75;1763907;81;20171;-75
2021/06/05 08:30:39;;;;;;;;;;;;;;;28.48;29.88;100635.94;1763709;81;20145;-77
2021/06/05 08:33:06;;;;;;;;;;;;;;;28.50;29.74;100639.27;1753879;79;20186;-76
2021/06/05 08:35:32;;;;;;;;;;;;;;;28.52;29.80;100634.30;1746287;79;20594;-77
2021/06/05 08:37:58;;;;;;;;;;;;;;;28.55;29.73;100642.84;1767853;81;20369;-77
2021/06/05 08:40:39;;;;;;;;;;;;;;;28.60;29.64;100630.18;1759003;81;20206;-77
2021/06/05 08:43:06;;;;;;;;;;;;;;;28.64;29.32;100632.11;1742837;79;20431;-75
2021/06/05 08:45:32;;;;;;;;;;;;;;;28.68;29.37;100631.84;1759240;79;20304;-76
2021/06/05 08:48:02;;;;;;;;;;;;;;;28.71;29.35;100633.23;1759623;81;20230;-78
2021/06/05 08:50:30;;;;;;;;;;;;;;;28.72;29.44;100628.82;1769532;80;20204;-78
2021/06/05 08:53:10;;;;;;;;;;;;;;;28.76;28.95;100629.11;1754431;81;20161;-79
2021/06/05 08:55:41;;;;;;;;;;;;;;;28.78;28.79;100626.33;1758494;81;20266;-77
2021/06/05 08:58:31;;;;;;;;;;;;;;;28.82;29.02;100632.12;1763093;79;20195;-77
2021/06/05 09:01:22;;;;;;;;;;;;;;;28.87;29.17;100625.79;1767965;81;20212;-77
2021/06/05 09:04:01;;;;;;;;;;;;;;;28.93;29.05;100630.19;1766079;79;20232;-77
2021/06/05 09:06:40;;;;;;;;;;;;;;;28.96;28.29;100626.36;1766578;81;20184;-77
2021/06/05 09:09:08;;;;;;;;;;;;;;;28.98;28.33;100624.73;1754832;81;20209;-78
2021/06/05 09:11:36;;;;;;;;;;;;;;;29.02;28.75;100621.14;1762636;81;20200;-77
2021/06/05 09:14:03;;;;;;;;;;;;;;;29.07;28.05;100620.31;1740192;81;20178;-77
2021/06/05 09:16:48;;;;;;;;;;;;;;;29.10;27.98;100618.35;1738183;81;20218;-77
2021/06/05 09:19:30;;;;;;;;;;;;;;;29.17;28.47;100621.67;1739809;82;21570;-79
2021/06/05 09:22:10;;;;;;;;;;;;;;;29.21;27.95;100620.56;1742191;81;20182;-77
2021/06/05 09:24:46;;;;;;;;;;;;;;;29.19;27.58;100614.48;1737837;82;20218;-77
2021/06/05 09:27:19;;;;;;;;;;;;;;;29.16;27.87;100614.50;1739473;82;20139;-77
2021/06/05 09:30:08;;;;;;;;;;;;;;;29.14;27.47;100616.70;1741016;82;20147;-78
2021/06/05 09:32:37;;;;;;;;;;;;;;;29.12;27.48;100616.72;1741442;82;20159;-76
2021/06/05 09:35:12;;;;;;;;;;;;;;;29.06;27.21;100611.18;1737320;82;20143;-77
2021/06/05 09:37:45;;;;;;;;;;;;;;;29.00;27.06;100612.86;1771396;79;20172;-77
2021/06/05 09:40:22;;;;;;;;;;;;;;;28.94;27.35;100604.30;1778505;80;20183;-77
2021/06/05 09:42:53;;;;;;;;;;;;;;;28.90;27.68;100604.01;1779762;80;20158;-78
2021/06/05 09:45:24;;;;;;;;;;;;;;;28.85;27.74;100602.64;1766041;80;20135;-76
2021/06/05 09:47:50;;;;;;;;;;;;;;;28.84;27.73;100602.34;1755395;81;20165;-77
2021/06/05 09:50:26;;;;;;;;;;;;;;;28.79;28.32;100601.79;1770691;81;20438;-77
2021/06/05 09:52:52;;;;;;;;;;;;;;;28.76;28.38;100591.33;1768249;81;20172;-77
2021/06/05 09:55:24;;;;;;;;;;;;;;;28.71;28.48;100589.14;1769768;81;20183;-78
2021/06/05 09:57:50;;;;;;;;;;;;;;;28.67;28.34;100589.41;1770330;81;20218;-78
2021/06/05 10:00:32;;;;;;;;;;;;;;;28.62;29.01;100579.20;1771214;81;20140;-77
2021/06/05 10:03:27;;;;;;;;;;;;;;;28.61;28.47;100584.98;1759330;81;20140;-76
2021/06/05 10:05:55;;;;;;;;;;;;;;;28.55;28.35;100589.66;1759602;81;20250;-78
2021/06/05 10:08:36;;;;;;;;;;;;;;;28.50;28.62;100594.62;1768924;81;20250;-77
2021/06/05 10:11:09;;;;;;;;;;;;;;;28.45;28.57;100585.53;1770214;81;20141;-79
2021/06/05 10:13:37;;;;;;;;;;;;;;;28.41;28.11;100589.92;1769309;81;20191;-77
2021/06/05 10:16:10;;;;;;;;;;;;;;;28.34;28.09;100594.28;1761132;79;20435;-77
2021/06/05 10:18:42;;;;;;;;;;;;;;;28.27;28.06;100590.42;1745230;80;20179;-77
2021/06/05 10:21:13;;;;;;;;;;;;;;;28.23;28.09;100587.94;1769262;79;20200;-78
2021/06/05 10:23:42;;;;;;;;;;;;;;;28.19;28.25;100587.38;1741247;81;20211;-77
2021/06/05 10:26:17;;;;;;;;;;;;;;;28.17;28.35;100581.33;1782701;79;20157;-77
2021/06/05 10:28:48;;;;;;;;;;;;;;;28.13;28.44;100589.30;1724846;81;20308;-77
2021/06/05 10:31:15;;;;;;;;;;;;;;;28.12;28.50;100584.89;1760138;80;20193;-78
2021/06/05 10:34:02;;;;;;;;;;;;;;;28.13;28.76;100582.41;1761816;79;20903;-78
2021/06/05 10:36:34;;;;;;;;;;;;;;;28.13;28.84;100581.59;1743903;81;20204;-78
2021/06/05 10:39:05;;;;;;;;;;;;;;;28.16;29.35;100579.13;1749326;79;20174;-76
2021/06/05 10:41:35;;;;;;;;;;;;;;;28.18;29.14;100575.53;1738933;82;20203;-77
2021/06/05 10:44:04;;;;;;;;;;;;;;;28.22;29.23;100575.27;1738820;82;20353;-77
2021/06/05 10:46:39;;;;;;;;;;;;;;;28.21;28.18;100569.48;1740488;82;20183;-77
2021/06/05 10:49:16;;;;;;;;;;;;;;;28.21;28.50;100570.87;1739920;82;20182;-77
2021/06/05 10:51:44;;;;;;;;;;;;;;;28.22;28.60;100566.18;1734199;81;20179;-77
2021/06/05 10:54:16;;;;;;;;;;;;;;;28.22;28.19;100568.38;1770327;81;20307;-77
2021/06/05 10:57:04;;;;;;;;;;;;;;;28.21;27.63;100565.91;1744778;81;20204;-78
2021/06/05 10:59:46;;;;;;;;;;;;;;;28.18;27.66;100562.31;1741452;82;20180;-77
2021/06/05 11:02:42;;;;;;;;;;;;;;;28.01;27.82;100561.16;1743442;82;20434;-78
2021/06/05 11:05:26;;;;;;;;;;;;;;;27.97;27.99;100557.30;1742475;81;20164;-78
2021/06/05 11:07:49;;;;;;;;;;;;;;;27.94;27.85;100554.55;1740709;81;20177;-78
2021/06/05 11:10:54;;;;;;;;;;;;;;;27.91;27.50;100557.02;1716206;82;20177;-78
2021/06/05 11:13:36;;;;;;;;;;;;;;;27.85;27.73;100549.30;1739903;82;20176;-76
2021/06/05 11:16:13;;;;;;;;;;;;;;;27.81;27.21;100556.44;1739963;82;20511;-76
2021/06/05 11:18:59;;;;;;;;;;;;;;;27.77;27.51;100547.89;1743911;79;20177;-78
2021/06/05 11:21:31;;;;;;;;;;;;;;;27.77;27.98;100550.64;1740254;82;20170;-77
2021/06/05 11:24:01;;;;;;;;;;;;;;;27.76;27.77;100545.42;1739583;82;20172;-77
2021/06/05 11:26:46;;;;;;;;;;;;;;;27.73;27.78;100543.19;1740503;82;20639;-78
2021/06/05 11:29:22;;;;;;;;;;;;;;;27.72;28.13;100543.75;1717037;82;20182;-78
2021/06/05 11:32:06;;;;;;;;;;;;;;;27.71;27.93;100537.94;1739838;82;20171;-78
2021/06/05 11:34:35;;;;;;;;;;;;;;;27.69;28.03;100545.63;1739755;82;20179;-78
2021/06/05 11:37:09;;;;;;;;;;;;;;;27.68;28.09;100543.97;1739569;82;20198;-78
2021/06/05 11:39:39;;;;;;;;;;;;;;;27.69;28.31;100539.29;1740331;82;20179;-77
2021/06/05 11:42:21;;;;;;;;;;;;;;;27.70;28.05;100535.44;1740900;82;20182;-77
2021/06/05 11:44:49;;;;;;;;;;;;;;;27.69;27.90;100538.73;1741022;82;20135;-77
2021/06/05 11:47:20;;;;;;;;;;;;;;;27.69;28.05;100540.12;1741332;82;20154;-77
2021/06/05 11:49:51;;;;;;;;;;;;;;;27.68;28.14;100530.21;1741666;82;20131;-77
2021/06/05 11:52:31;;;;;;;;;;;;;;;27.68;28.34;100531.59;1741574;82;20132;-77
2021/06/05 11:55:00;;;;;;;;;;;;;;;27.67;28.39;100538.20;1741275;82;20352;-78
2021/06/05 11:57:30;;;;;;;;;;;;;;;27.67;28.46;100528.56;1741383;82;20132;-77
2021/06/05 11:59:58;;;;;;;;;;;;;;;27.66;27.50;100531.05;1739699;82;20150;-77
2021/06/05 12:02:27;;;;;;;;;;;;;;;27.60;27.23;100521.65;1740587;82;20163;-78
2021/06/05 12:04:56;;;;;;;;;;;;;;;27.56;27.58;100523.55;1740276;82;20484;-77
2021/06/05 12:07:29;;;;;;;;;;;;;;;27.58;28.18;100527.43;1740467;82;20184;-76
2021/06/05 12:09:56;;;;;;;;;;;;;;;27.58;28.22;100526.61;1740988;82;20144;-78
2021/06/05 12:12:28;;;;;;;;;;;;;;;27.58;28.05;100533.48;1741261;82;20432;-76
2021/06/05 12:15:00;;;;;;;;;;;;;;;27.58;28.04;100530.73;1740626;79;20237;-78
2021/06/05 12:17:28;;;;;;;;;;;;;;;27.60;28.03;100530.73;1720903;82;20171;-77
2021/06/05 12:20:05;;;;;;;;;;;;;;;27.58;28.02;100524.68;1750472;79;20196;-76
2021/06/05 12:22:31;;;;;;;;;;;;;;;27.58;28.10;100524.68;1733403;82;20198;-76
2021/06/05 12:24:58;;;;;;;;;;;;;;;27.56;27.86;100524.11;1752271;79;20157;-76
2021/06/05 12:27:31;;;;;;;;;;;;;;;27.54;27.93;100521.63;1772401;79;20176;-76
2021/06/05 12:30:11;;;;;;;;;;;;;;;27.52;27.98;100518.86;1750425;79;20166;-77
2021/06/05 12:32:37;;;;;;;;;;;;;;;27.52;28.25;100524.36;1744114;80;20488;-77
2021/06/05 12:35:28;;;;;;;;;;;;;;;27.50;28.32;100518.31;1738345;82;20190;-78
2021/06/05 12:37:57;;;;;;;;;;;;;;;27.49;28.10;100515.29;1682310;82;20215;-77
2021/06/05 12:40:38;;;;;;;;;;;;;;;27.47;28.09;100516.09;1721835;82;20182;-78
2021/06/05 12:43:05;;;;;;;;;;;;;;;27.46;28.28;100514.44;1747827;79;20221;-76
2021/06/05 12:45:33;;;;;;;;;;;;;;;27.48;28.35;100510.86;1738185;82;20178;-76
2021/06/05 12:47:59;;;;;;;;;;;;;;;27.46;28.09;100516.64;1715449;82;20170;-76
2021/06/05 12:50:32;;;;;;;;;;;;;;;27.47;27.94;100513.34;1739531;82;20210;-77